Aérodrome :







RETROUVEZ-NOUS SUR...

 
LOGIN :

S'inscrire | Disclaimer

   EN    FR    IT 

 









Légende :    VFR   VFR Marginal   IFR   IFR Intensif   IFR Très Intensif
Visi : 
Plafond : 
>= 8 km
>= 3000ft
5 à 8 km
1000 à 3000 ft
1500m à 5 km
500 à 1000 ft
800 à 1500m
200 à 500 ft
< 800m
< 200 ft
Symboles :   Orages  Brouillard  Fortes neiges  Fortes précipitations  Vent > 20 kt






- Altitude de l'aérodrome : 626 ft


KCAR - Caribou Municipal

DERNIER METAR :
  • 202354Z AUTO 36008KT 10SM OVC110 M01/M04 A2997 RMK AO2 SLP159 T10111039 10000 21011 51007

METARs EXPIRÉS :
  • 202254Z AUTO 36006KT 10SM OVC100 M01/M03 A2996 RMK AO2 SLP156 T10061033
  • 202154Z AUTO 01004KT 10SM OVC100 M01/M03 A2996 RMK AO2 SLP154 T10111033

TAF KCAR
Valide du 21 à 00h jusqu'au 22 à 00h UTC


202320Z 2100/2124 36006KT P6SM OVC100
FM210700 34005KT P6SM BKN015
FM212100 VRB03KT P6SM BKN025



MET'MAP, la Météo Aéronautique d'un coup d'oeil ! - Copyright ORBIFLY Décembre 2007 - Disclaimer

ORBIFLY MET'MAP TEAM :

Programmation & Développement : Alexandra Zaïnal
Conception & Développement : Baudouin d'Aumeries
Co-Programmation & Développement : Marc-Olivier Méhu
Soutien technique & logistique : Manuel Goepfert

Contact : metmap@orbifly.com




SOURCES & CREDITS :

   NOAA